Time;durP1;ratioP1;P1;durP2;ratioP2;P2;SDS_P1;SDS_P2;PMS_P1;PMS_P2;Temp;Humidity;BMP_temperature;BMP_pressure;BME280_temperature;BME280_humidity;BME280_pressure;Samples;Min_cycle;Max_cycle;Signal;HPM_P1;HPM_P2
2022/10/05 00:00:11;;;;;;;;;;;;;;;;;;348770;28;829;-64
2022/10/05 00:00:21;;;;;;;;;;;;;;;;;;348703;28;864;-64
2022/10/05 00:00:31;;;;;;;;;;;;;;;;;;348781;28;913;-63
2022/10/05 00:00:46;;;;;;;;;;;;;;;;;;348726;28;786;-64
2022/10/05 00:00:58;;;;;;;;;;;;;;;;;;348704;28;983;-64
2022/10/05 00:01:21;;;;;;;;;;;;;;;;;;348763;28;941;-64
2022/10/05 00:01:33;;;;;;;;;;;;;;;;;;348636;28;987;-64
2022/10/05 00:01:44;;;;;;;;;;;;;;;;;;348754;28;956;-63
2022/10/05 00:01:55;;;;;;;;;;;;;;;;;;348755;28;991;-63
2022/10/05 00:02:12;;;;;;;;;;;;;;;;;;348773;28;928;-64
2022/10/05 00:02:23;;;;;;;;;;;;;;;;;;348758;28;1023;-64
2022/10/05 00:02:33;;;;;;;;;;;;;;;;;;348791;28;960;-63
2022/10/05 00:02:45;;;;;;;;;;;;;;;;;;348755;28;1136;-64
2022/10/05 00:02:55;;;;;;;;;;;;;;;;;;348728;28;953;-63
2022/10/05 00:03:09;;;;;;;;;;;;;;;;;;348772;28;850;-63
2022/10/05 00:03:21;;;;;;;;;;;;;;;;;;348693;28;1175;-63
2022/10/05 00:03:37;;;;;;;;;;;;;;;;;;348738;28;917;-63
2022/10/05 00:03:48;;;;;;;;;;;;;;;;;;348749;28;987;-64
2022/10/05 00:04:17;;;;;;;;;;;;;;;;;;348733;28;940;-64
2022/10/05 00:04:27;;;;;;;;;;;;;;;;;;348705;28;913;-64
2022/10/05 00:04:38;;;;;;;;;;;;;;;;;;348735;28;960;-63
2022/10/05 00:04:51;;;;;;;;;;;;;;;;;;348783;28;825;-63
2022/10/05 00:05:10;;;;;;;;;;;;;;;;;;348752;28;913;-63
2022/10/05 00:05:29;;;;;;;;;;;;;;;;;;348735;28;941;-63
2022/10/05 00:05:39;;;;;;;;;;;;;;;;;;348727;28;964;-63
2022/10/05 00:05:49;;;;;;;;;;;;;;;;;;348661;28;932;-64
2022/10/05 00:06:00;;;;;;;;;;;;;;;;;;348733;28;1019;-63
2022/10/05 00:06:10;;;;;;;;;;;;;;;;;;348754;28;806;-63
2022/10/05 00:06:21;;;;;;;;;;;;;;;;;;348722;28;917;-64
2022/10/05 00:06:31;;;;;;;;;;;;;;;;;;348716;28;932;-64
2022/10/05 00:06:42;;;;;;;;;;;;;;;;;;348727;28;1213;-63
2022/10/05 00:07:07;;;;;;;;;;;;;;;;;;348738;28;1000;-63
2022/10/05 00:07:18;;;;;;;;;;;;;;;;;;348666;28;890;-63
2022/10/05 00:07:29;;;;;;;;;;;;;;;;;;348618;28;1211;-64
2022/10/05 00:07:39;;;;;;;;;;;;;;;;;;349095;28;1444;-63
2022/10/05 00:07:50;;;;;;;;;;;;;;;;;;348709;28;967;-63
2022/10/05 00:08:07;;;;;;;;;;;;;;;;;;348724;28;988;-63
2022/10/05 00:08:20;;;;;;;;;;;;;;;;;;348734;28;929;-63
2022/10/05 00:08:32;;;;;;;;;;;;;;;;;;348725;28;925;-63
2022/10/05 00:08:42;;;;;;;;;;;;;;;;;;349876;28;1440;-63
2022/10/05 00:08:52;;;;;;;;;;;;;;;;;;350065;28;1253;-63
2022/10/05 00:09:09;;;;;;;;;;;;;;;;;;350102;28;963;-64
2022/10/05 00:09:20;;;;;;;;;;;;;;;;;;350140;28;825;-64
2022/10/05 00:09:31;;;;;;;;;;;;;;;;;;350103;28;940;-64
2022/10/05 00:09:42;;;;;;;;;;;;;;;;;;350113;28;991;-63
2022/10/05 00:09:54;;;;;;;;;;;;;;;;;;349216;28;1434;-64
2022/10/05 00:10:09;;;;;;;;;;;;;;;;;;350104;28;924;-63
2022/10/05 00:10:19;;;;;;;;;;;;;;;;;;350120;28;920;-64
2022/10/05 00:10:29;;;;;;;;;;;;;;;;;;350137;28;979;-63
2022/10/05 00:10:40;;;;;;;;;;;;;;;;;;350053;28;1060;-64
2022/10/05 00:10:51;;;;;;;;;;;;;;;;;;350116;28;967;-63
2022/10/05 00:11:01;;;;;;;;;;;;;;;;;;350150;28;995;-64
2022/10/05 00:11:12;;;;;;;;;;;;;;;;;;350132;28;865;-63
2022/10/05 00:11:22;;;;;;;;;;;;;;;;;;350133;28;859;-63
2022/10/05 00:11:33;;;;;;;;;;;;;;;;;;350100;28;933;-64
2022/10/05 00:11:43;;;;;;;;;;;;;;;;;;350082;28;1015;-64
2022/10/05 00:11:53;;;;;;;;;;;;;;;;;;350057;28;1027;-64
2022/10/05 00:12:17;;;;;;;;;;;;;;;;;;350151;28;908;-63
2022/10/05 00:12:28;;;;;;;;;;;;;;;;;;350069;28;919;-63
2022/10/05 00:12:38;;;;;;;;;;;;;;;;;;350108;28;988;-64
2022/10/05 00:12:49;;;;;;;;;;;;;;;;;;350123;28;912;-63
2022/10/05 00:12:59;;;;;;;;;;;;;;;;;;350148;28;911;-64
2022/10/05 00:13:13;;;;;;;;;;;;;;;;;;350123;28;916;-63
2022/10/05 00:13:25;;;;;;;;;;;;;;;;;;350111;28;868;-64
2022/10/05 00:13:35;;;;;;;;;;;;;;;;;;348647;28;1373;-64
2022/10/05 00:13:46;;;;;;;;;;;;;;;;;;350409;28;1676;-64
2022/10/05 00:13:56;;;;;;;;;;;;;;;;;;350058;28;919;-64
2022/10/05 00:14:27;;;;;;;;;;;;;;;;;;349527;28;1347;-64
2022/10/05 00:14:38;;;;;;;;;;;;;;;;;;348716;28;1034;-64
2022/10/05 00:14:49;;;;;;;;;;;;;;;;;;348701;28;987;-64
2022/10/05 00:15:00;;;;;;;;;;;;;;;;;;348693;28;1031;-64
2022/10/05 00:15:12;;;;;;;;;;;;;;;;;;348729;28;932;-63
2022/10/05 00:15:22;;;;;;;;;;;;;;;;;;348716;28;971;-63
2022/10/05 00:15:34;;;;;;;;;;;;;;;;;;349502;28;1576;-64
2022/10/05 00:15:45;;;;;;;;;;;;;;;;;;350143;28;916;-64
2022/10/05 00:16:04;;;;;;;;;;;;;;;;;;350156;28;778;-64
2022/10/05 00:16:20;;;;;;;;;;;;;;;;;;350170;28;832;-64
2022/10/05 00:16:31;;;;;;;;;;;;;;;;;;350030;28;952;-64
2022/10/05 00:16:41;;;;;;;;;;;;;;;;;;350130;28;999;-64
2022/10/05 00:16:51;;;;;;;;;;;;;;;;;;350134;28;825;-64
2022/10/05 00:17:03;;;;;;;;;;;;;;;;;;350137;28;960;-64
2022/10/05 00:17:18;;;;;;;;;;;;;;;;;;350171;28;784;-63
2022/10/05 00:17:29;;;;;;;;;;;;;;;;;;350043;28;948;-64
2022/10/05 00:17:40;;;;;;;;;;;;;;;;;;350040;28;1973;-64
2022/10/05 00:17:50;;;;;;;;;;;;;;;;;;350124;28;861;-63
2022/10/05 00:18:01;;;;;;;;;;;;;;;;;;350122;28;928;-64
2022/10/05 00:18:13;;;;;;;;;;;;;;;;;;350044;28;793;-64
2022/10/05 00:18:25;;;;;;;;;;;;;;;;;;350088;28;999;-64
2022/10/05 00:18:36;;;;;;;;;;;;;;;;;;350099;28;1027;-63
2022/10/05 00:18:50;;;;;;;;;;;;;;;;;;350089;28;952;-64
2022/10/05 00:19:18;;;;;;;;;;;;;;;;;;350133;28;797;-64
2022/10/05 00:19:32;;;;;;;;;;;;;;;;;;350143;28;908;-63
2022/10/05 00:19:42;;;;;;;;;;;;;;;;;;349626;28;1679;-63
2022/10/05 00:19:53;;;;;;;;;;;;;;;;;;350115;28;940;-64
2022/10/05 00:20:16;;;;;;;;;;;;;;;;;;350144;28;952;-64
2022/10/05 00:20:26;;;;;;;;;;;;;;;;;;350055;28;959;-64
2022/10/05 00:20:36;;;;;;;;;;;;;;;;;;350096;28;995;-64
2022/10/05 00:20:47;;;;;;;;;;;;;;;;;;350069;28;844;-63
2022/10/05 00:20:57;;;;;;;;;;;;;;;;;;349897;28;995;-64
2022/10/05 00:21:12;;;;;;;;;;;;;;;;;;350053;28;1553;-63
2022/10/05 00:21:24;;;;;;;;;;;;;;;;;;350074;28;1003;-64
2022/10/05 00:21:34;;;;;;;;;;;;;;;;;;350083;28;967;-63
2022/10/05 00:21:45;;;;;;;;;;;;;;;;;;350188;28;781;-64
2022/10/05 00:21:59;;;;;;;;;;;;;;;;;;350097;28;900;-64
2022/10/05 00:22:10;;;;;;;;;;;;;;;;;;350139;28;869;-64
2022/10/05 00:22:22;;;;;;;;;;;;;;;;;;350083;28;845;-64
2022/10/05 00:22:32;;;;;;;;;;;;;;;;;;350119;28;901;-64
2022/10/05 00:22:43;;;;;;;;;;;;;;;;;;350072;28;938;-64
2022/10/05 00:22:56;;;;;;;;;;;;;;;;;;350079;28;1023;-64
2022/10/05 00:23:06;;;;;;;;;;;;;;;;;;350109;28;948;-64
2022/10/05 00:23:18;;;;;;;;;;;;;;;;;;350130;28;952;-64
2022/10/05 00:23:30;;;;;;;;;;;;;;;;;;350089;28;861;-64
2022/10/05 00:23:40;;;;;;;;;;;;;;;;;;350083;28;952;-64
2022/10/05 00:23:51;;;;;;;;;;;;;;;;;;350139;28;1102;-64
2022/10/05 00:24:01;;;;;;;;;;;;;;;;;;350023;28;1319;-64
2022/10/05 00:24:12;;;;;;;;;;;;;;;;;;350056;28;1011;-63
2022/10/05 00:24:22;;;;;;;;;;;;;;;;;;350015;28;948;-63
2022/10/05 00:24:33;;;;;;;;;;;;;;;;;;350159;28;903;-64
2022/10/05 00:24:44;;;;;;;;;;;;;;;;;;350129;28;1197;-63
2022/10/05 00:24:56;;;;;;;;;;;;;;;;;;350094;28;976;-64
2022/10/05 00:25:14;;;;;;;;;;;;;;;;;;350102;28;988;-64
2022/10/05 00:25:25;;;;;;;;;;;;;;;;;;350087;28;1144;-63
2022/10/05 00:25:35;;;;;;;;;;;;;;;;;;350125;28;999;-64
2022/10/05 00:25:45;;;;;;;;;;;;;;;;;;350053;28;841;-64
2022/10/05 00:26:01;;;;;;;;;;;;;;;;;;350093;28;935;-64
2022/10/05 00:26:17;;;;;;;;;;;;;;;;;;350110;28;912;-64
2022/10/05 00:26:31;;;;;;;;;;;;;;;;;;350031;28;932;-63
2022/10/05 00:26:41;;;;;;;;;;;;;;;;;;349977;28;976;-64
2022/10/05 00:26:51;;;;;;;;;;;;;;;;;;350116;28;798;-64
2022/10/05 00:27:11;;;;;;;;;;;;;;;;;;350139;28;797;-64
2022/10/05 00:27:23;;;;;;;;;;;;;;;;;;350064;28;980;-64
2022/10/05 00:27:35;;;;;;;;;;;;;;;;;;350131;28;811;-64
2022/10/05 00:27:50;;;;;;;;;;;;;;;;;;350158;28;987;-63
2022/10/05 00:28:00;;;;;;;;;;;;;;;;;;350105;28;1011;-63
2022/10/05 00:28:16;;;;;;;;;;;;;;;;;;350132;28;853;-64
2022/10/05 00:28:29;;;;;;;;;;;;;;;;;;350038;28;991;-64
2022/10/05 00:28:39;;;;;;;;;;;;;;;;;;350082;28;988;-64
2022/10/05 00:28:50;;;;;;;;;;;;;;;;;;350092;28;917;-64
2022/10/05 00:29:01;;;;;;;;;;;;;;;;;;349616;28;1322;-64
2022/10/05 00:29:21;;;;;;;;;;;;;;;;;;349981;28;937;-64
2022/10/05 00:29:33;;;;;;;;;;;;;;;;;;350033;28;952;-64
2022/10/05 00:29:43;;;;;;;;;;;;;;;;;;350119;28;897;-64
2022/10/05 00:29:57;;;;;;;;;;;;;;;;;;350065;28;1074;-63
2022/10/05 00:30:12;;;;;;;;;;;;;;;;;;350108;28;1736;-63
2022/10/05 00:30:24;;;;;;;;;;;;;;;;;;350073;28;991;-63
2022/10/05 00:30:34;;;;;;;;;;;;;;;;;;350017;28;912;-64
2022/10/05 00:30:45;;;;;;;;;;;;;;;;;;350051;28;1007;-64
2022/10/05 00:30:59;;;;;;;;;;;;;;;;;;350140;28;849;-64
2022/10/05 00:31:13;;;;;;;;;;;;;;;;;;350094;28;849;-63
2022/10/05 00:31:25;;;;;;;;;;;;;;;;;;350100;28;1031;-64
2022/10/05 00:31:35;;;;;;;;;;;;;;;;;;350061;28;928;-64
2022/10/05 00:31:46;;;;;;;;;;;;;;;;;;350128;28;888;-64
2022/10/05 00:31:56;;;;;;;;;;;;;;;;;;350090;28;928;-64
2022/10/05 00:32:07;;;;;;;;;;;;;;;;;;350033;28;912;-63
2022/10/05 00:32:18;;;;;;;;;;;;;;;;;;351051;28;1168;-64
2022/10/05 00:32:28;;;;;;;;;;;;;;;;;;351478;28;940;-64
2022/10/05 00:32:39;;;;;;;;;;;;;;;;;;351425;28;1010;-64
2022/10/05 00:32:49;;;;;;;;;;;;;;;;;;351355;28;1271;-63
2022/10/05 00:32:59;;;;;;;;;;;;;;;;;;351473;28;925;-64
2022/10/05 00:33:10;;;;;;;;;;;;;;;;;;351457;28;947;-64
2022/10/05 00:33:20;;;;;;;;;;;;;;;;;;351470;28;864;-63
2022/10/05 00:33:30;;;;;;;;;;;;;;;;;;349180;28;1400;-64
2022/10/05 00:33:41;;;;;;;;;;;;;;;;;;350109;28;889;-64
2022/10/05 00:33:51;;;;;;;;;;;;;;;;;;350011;28;917;-64
2022/10/05 00:34:01;;;;;;;;;;;;;;;;;;350080;28;963;-63
2022/10/05 00:34:11;;;;;;;;;;;;;;;;;;350113;28;781;-64
2022/10/05 00:34:21;;;;;;;;;;;;;;;;;;350103;28;897;-63
2022/10/05 00:34:32;;;;;;;;;;;;;;;;;;350146;28;786;-64
2022/10/05 00:34:43;;;;;;;;;;;;;;;;;;350031;28;945;-64
2022/10/05 00:34:53;;;;;;;;;;;;;;;;;;350022;28;900;-63
2022/10/05 00:35:03;;;;;;;;;;;;;;;;;;350112;28;929;-63
2022/10/05 00:35:15;;;;;;;;;;;;;;;;;;350118;28;913;-64
2022/10/05 00:35:28;;;;;;;;;;;;;;;;;;349981;28;1174;-63
2022/10/05 00:35:38;;;;;;;;;;;;;;;;;;350036;28;983;-63
2022/10/05 00:35:49;;;;;;;;;;;;;;;;;;350054;28;1015;-63
2022/10/05 00:35:59;;;;;;;;;;;;;;;;;;350069;28;924;-64
2022/10/05 00:36:09;;;;;;;;;;;;;;;;;;350072;28;972;-64
2022/10/05 00:36:19;;;;;;;;;;;;;;;;;;350054;28;928;-63
2022/10/05 00:36:31;;;;;;;;;;;;;;;;;;350075;28;921;-64
2022/10/05 00:36:41;;;;;;;;;;;;;;;;;;350096;28;987;-64
2022/10/05 00:36:51;;;;;;;;;;;;;;;;;;350032;28;908;-64
2022/10/05 00:37:02;;;;;;;;;;;;;;;;;;350052;28;1011;-64
2022/10/05 00:37:13;;;;;;;;;;;;;;;;;;350044;28;956;-63
2022/10/05 00:37:23;;;;;;;;;;;;;;;;;;350042;28;984;-64
2022/10/05 00:37:34;;;;;;;;;;;;;;;;;;350105;28;794;-64
2022/10/05 00:37:46;;;;;;;;;;;;;;;;;;350019;28;1906;-63
2022/10/05 00:37:56;;;;;;;;;;;;;;;;;;350020;28;1050;-63
2022/10/05 00:38:06;;;;;;;;;;;;;;;;;;350034;28;968;-63
2022/10/05 00:38:16;;;;;;;;;;;;;;;;;;350109;28;913;-63
2022/10/05 00:38:27;;;;;;;;;;;;;;;;;;350034;28;861;-63
2022/10/05 00:38:37;;;;;;;;;;;;;;;;;;350131;28;1043;-64
2022/10/05 00:38:48;;;;;;;;;;;;;;;;;;350108;28;885;-63
2022/10/05 00:38:59;;;;;;;;;;;;;;;;;;350019;28;983;-64
2022/10/05 00:39:10;;;;;;;;;;;;;;;;;;350066;28;909;-64
2022/10/05 00:39:20;;;;;;;;;;;;;;;;;;350073;28;908;-63
2022/10/05 00:39:30;;;;;;;;;;;;;;;;;;350005;28;903;-64
2022/10/05 00:39:41;;;;;;;;;;;;;;;;;;350082;28;980;-64
2022/10/05 00:39:51;;;;;;;;;;;;;;;;;;350092;28;963;-64
2022/10/05 00:40:02;;;;;;;;;;;;;;;;;;350086;28;789;-63
2022/10/05 00:40:25;;;;;;;;;;;;;;;;;;350045;28;984;-63
2022/10/05 00:40:35;;;;;;;;;;;;;;;;;;350091;28;928;-64
2022/10/05 00:40:57;;;;;;;;;;;;;;;;;;350068;28;992;-64
2022/10/05 00:41:10;;;;;;;;;;;;;;;;;;349965;28;1027;-64
2022/10/05 00:41:28;;;;;;;;;;;;;;;;;;350041;28;1074;-64
2022/10/05 00:41:49;;;;;;;;;;;;;;;;;;350107;28;790;-63
2022/10/05 00:42:18;;;;;;;;;;;;;;;;;;350066;28;845;-63
2022/10/05 00:42:36;;;;;;;;;;;;;;;;;;349341;28;1397;-63
2022/10/05 00:42:52;;;;;;;;;;;;;;;;;;348717;28;1075;-63
2022/10/05 00:43:11;;;;;;;;;;;;;;;;;;348669;28;1015;-63
2022/10/05 00:43:40;;;;;;;;;;;;;;;;;;348631;28;977;-64
2022/10/05 00:44:05;;;;;;;;;;;;;;;;;;348586;28;1360;-63
2022/10/05 00:44:23;;;;;;;;;;;;;;;;;;351425;28;976;-63
2022/10/05 00:44:52;;;;;;;;;;;;;;;;;;351452;28;936;-63
2022/10/05 00:45:08;;;;;;;;;;;;;;;;;;351369;28;925;-63
2022/10/05 00:45:23;;;;;;;;;;;;;;;;;;351399;28;956;-63
2022/10/05 00:45:42;;;;;;;;;;;;;;;;;;350042;28;826;-63
2022/10/05 00:46:01;;;;;;;;;;;;;;;;;;350081;28;830;-63
2022/10/05 00:46:24;;;;;;;;;;;;;;;;;;350006;28;1222;-63
2022/10/05 00:46:47;;;;;;;;;;;;;;;;;;350080;28;1074;-64
2022/10/05 00:47:07;;;;;;;;;;;;;;;;;;350022;28;964;-64
2022/10/05 00:47:36;;;;;;;;;;;;;;;;;;349972;28;916;-63
2022/10/05 00:47:49;;;;;;;;;;;;;;;;;;350010;28;983;-64
2022/10/05 00:48:12;;;;;;;;;;;;;;;;;;350017;28;1107;-64
2022/10/05 00:48:31;;;;;;;;;;;;;;;;;;350045;28;829;-63
2022/10/05 00:48:52;;;;;;;;;;;;;;;;;;350088;28;950;-64
2022/10/05 00:49:08;;;;;;;;;;;;;;;;;;350041;28;952;-63
2022/10/05 00:49:21;;;;;;;;;;;;;;;;;;350002;28;993;-64
2022/10/05 00:49:34;;;;;;;;;;;;;;;;;;348564;28;866;-64
2022/10/05 00:49:50;;;;;;;;;;;;;;;;;;348586;28;961;-63
2022/10/05 00:50:35;;;;;;;;;;;;;;;;;;348540;28;886;-64
2022/10/05 00:51:02;;;;;;;;;;;;;;;;;;348553;28;995;-64
2022/10/05 00:51:33;;;;;;;;;;;;;;;;;;347838;28;1753;-63
2022/10/05 00:51:50;;;;;;;;;;;;;;;;;;348674;28;960;-63
2022/10/05 00:52:03;;;;;;;;;;;;;;;;;;348682;28;988;-64
2022/10/05 00:52:22;;;;;;;;;;;;;;;;;;348643;28;929;-64
2022/10/05 00:52:35;;;;;;;;;;;;;;;;;;348611;28;956;-63
2022/10/05 00:52:54;;;;;;;;;;;;;;;;;;348735;28;778;-64
2022/10/05 00:53:20;;;;;;;;;;;;;;;;;;349841;28;1329;-63
2022/10/05 00:53:41;;;;;;;;;;;;;;;;;;351448;28;834;-64
2022/10/05 00:54:26;;;;;;;;;;;;;;;;;;351484;28;1026;-63
2022/10/05 00:54:42;;;;;;;;;;;;;;;;;;345826;28;878;-63
2022/10/05 00:55:11;;;;;;;;;;;;;;;;;;345766;28;937;-64
2022/10/05 00:55:27;;;;;;;;;;;;;;;;;;344220;28;1317;-63
2022/10/05 00:55:37;;;;;;;;;;;;;;;;;;344360;28;984;-64
2022/10/05 00:56:18;;;;;;;;;;;;;;;;;;344416;28;997;-64
2022/10/05 00:56:37;;;;;;;;;;;;;;;;;;344445;28;788;-63
2022/10/05 00:56:57;;;;;;;;;;;;;;;;;;344443;28;910;-63
2022/10/05 00:57:10;;;;;;;;;;;;;;;;;;344384;28;1004;-63
2022/10/05 00:57:39;;;;;;;;;;;;;;;;;;344419;28;1008;-64
2022/10/05 00:58:04;;;;;;;;;;;;;;;;;;349991;28;960;-63
2022/10/05 00:58:26;;;;;;;;;;;;;;;;;;350064;28;861;-63
2022/10/05 00:58:42;;;;;;;;;;;;;;;;;;350060;28;905;-63
2022/10/05 00:59:11;;;;;;;;;;;;;;;;;;350053;28;925;-64
2022/10/05 00:59:29;;;;;;;;;;;;;;;;;;349971;28;840;-64
2022/10/05 00:59:59;;;;;;;;;;;;;;;;;;350065;28;940;-64
2022/10/05 01:00:12;;;;;;;;;;;;;;;;;;350077;28;869;-63
2022/10/05 01:00:24;;;;;;;;;;;;;;;;;;349960;28;995;-64
2022/10/05 01:00:42;;;;;;;;;;;;;;;;;;350048;28;995;-63
2022/10/05 01:01:04;;;;;;;;;;;;;;;;;;350054;28;794;-63
2022/10/05 01:01:16;;;;;;;;;;;;;;;;;;349986;28;921;-64
2022/10/05 01:01:31;;;;;;;;;;;;;;;;;;349877;28;1395;-63
2022/10/05 01:01:42;;;;;;;;;;;;;;;;;;351457;28;960;-63
2022/10/05 01:01:56;;;;;;;;;;;;;;;;;;351412;28;1094;-63
2022/10/05 01:02:25;;;;;;;;;;;;;;;;;;351382;28;924;-64
2022/10/05 01:02:47;;;;;;;;;;;;;;;;;;351448;28;853;-63
2022/10/05 01:03:02;;;;;;;;;;;;;;;;;;351432;28;868;-63
2022/10/05 01:03:29;;;;;;;;;;;;;;;;;;351454;28;817;-63
2022/10/05 01:03:53;;;;;;;;;;;;;;;;;;351461;28;785;-63
2022/10/05 01:04:03;;;;;;;;;;;;;;;;;;351352;28;920;-63
2022/10/05 01:04:25;;;;;;;;;;;;;;;;;;351441;28;928;-63
2022/10/05 01:04:52;;;;;;;;;;;;;;;;;;351422;28;987;-63
2022/10/05 01:05:13;;;;;;;;;;;;;;;;;;351384;28;984;-64
2022/10/05 01:05:26;;;;;;;;;;;;;;;;;;351378;28;905;-63
2022/10/05 01:05:39;;;;;;;;;;;;;;;;;;351409;28;928;-64
2022/10/05 01:05:58;;;;;;;;;;;;;;;;;;351378;28;1117;-64
2022/10/05 01:06:08;;;;;;;;;;;;;;;;;;351413;28;952;-64
2022/10/05 01:06:22;;;;;;;;;;;;;;;;;;351427;28;944;-63
2022/10/05 01:06:33;;;;;;;;;;;;;;;;;;351394;28;936;-63
2022/10/05 01:06:51;;;;;;;;;;;;;;;;;;351397;28;997;-64
2022/10/05 01:07:16;;;;;;;;;;;;;;;;;;351451;28;770;-63
2022/10/05 01:08:02;;;;;;;;;;;;;;;;;;351408;28;960;-63
2022/10/05 01:08:18;;;;;;;;;;;;;;;;;;345673;28;949;-63
2022/10/05 01:08:40;;;;;;;;;;;;;;;;;;345804;28;834;-64
2022/10/05 01:09:09;;;;;;;;;;;;;;;;;;345769;28;1032;-64
2022/10/05 01:09:37;;;;;;;;;;;;;;;;;;344356;28;921;-64
2022/10/05 01:09:57;;;;;;;;;;;;;;;;;;344420;28;913;-63
2022/10/05 01:10:14;;;;;;;;;;;;;;;;;;344369;28;866;-63
2022/10/05 01:10:30;;;;;;;;;;;;;;;;;;344433;28;944;-64
2022/10/05 01:10:46;;;;;;;;;;;;;;;;;;344395;28;914;-63
2022/10/05 01:11:02;;;;;;;;;;;;;;;;;;344373;28;965;-64
2022/10/05 01:11:19;;;;;;;;;;;;;;;;;;349482;28;1401;-63
2022/10/05 01:11:37;;;;;;;;;;;;;;;;;;350093;28;877;-63
2022/10/05 01:11:59;;;;;;;;;;;;;;;;;;349999;28;983;-64
2022/10/05 01:12:12;;;;;;;;;;;;;;;;;;349982;28;1231;-64
2022/10/05 01:12:30;;;;;;;;;;;;;;;;;;349966;28;925;-63
2022/10/05 01:12:47;;;;;;;;;;;;;;;;;;350004;28;961;-64
2022/10/05 01:12:57;;;;;;;;;;;;;;;;;;349940;28;1007;-64
2022/10/05 01:13:31;;;;;;;;;;;;;;;;;;350016;28;976;-63
2022/10/05 01:13:48;;;;;;;;;;;;;;;;;;349923;28;1092;-63
2022/10/05 01:14:04;;;;;;;;;;;;;;;;;;349998;28;925;-63
2022/10/05 01:14:20;;;;;;;;;;;;;;;;;;349973;28;795;-63
2022/10/05 01:14:38;;;;;;;;;;;;;;;;;;350025;28;936;-63
2022/10/05 01:15:11;;;;;;;;;;;;;;;;;;350025;28;1007;-64
2022/10/05 01:15:30;;;;;;;;;;;;;;;;;;344361;28;945;-63
2022/10/05 01:15:53;;;;;;;;;;;;;;;;;;349774;28;1107;-64
2022/10/05 01:16:13;;;;;;;;;;;;;;;;;;349944;28;1024;-63
2022/10/05 01:16:33;;;;;;;;;;;;;;;;;;348643;28;845;-63
2022/10/05 01:16:50;;;;;;;;;;;;;;;;;;348555;28;925;-63
2022/10/05 01:17:07;;;;;;;;;;;;;;;;;;348644;28;921;-63
2022/10/05 01:17:30;;;;;;;;;;;;;;;;;;348641;28;1015;-63
2022/10/05 01:17:41;;;;;;;;;;;;;;;;;;348558;28;1973;-63
2022/10/05 01:17:59;;;;;;;;;;;;;;;;;;348607;28;1003;-63
2022/10/05 01:18:15;;;;;;;;;;;;;;;;;;348655;28;928;-63
2022/10/05 01:18:44;;;;;;;;;;;;;;;;;;348556;28;976;-63
2022/10/05 01:19:08;;;;;;;;;;;;;;;;;;348659;28;849;-63
2022/10/05 01:19:33;;;;;;;;;;;;;;;;;;348644;28;929;-63
2022/10/05 01:19:43;;;;;;;;;;;;;;;;;;348655;28;952;-63
2022/10/05 01:20:12;;;;;;;;;;;;;;;;;;348596;28;889;-63
2022/10/05 01:20:40;;;;;;;;;;;;;;;;;;348653;28;995;-63
2022/10/05 01:20:58;;;;;;;;;;;;;;;;;;348635;28;916;-63
2022/10/05 01:21:16;;;;;;;;;;;;;;;;;;348639;28;952;-64
2022/10/05 01:21:28;;;;;;;;;;;;;;;;;;348555;28;937;-63
2022/10/05 01:22:11;;;;;;;;;;;;;;;;;;348654;28;778;-64
2022/10/05 01:22:39;;;;;;;;;;;;;;;;;;344401;28;1080;-63
2022/10/05 01:23:08;;;;;;;;;;;;;;;;;;344262;28;1378;-63
2022/10/05 01:23:28;;;;;;;;;;;;;;;;;;344427;28;972;-64
2022/10/05 01:23:56;;;;;;;;;;;;;;;;;;347252;28;1026;-64
2022/10/05 01:24:26;;;;;;;;;;;;;;;;;;348604;28;972;-64
2022/10/05 01:24:44;;;;;;;;;;;;;;;;;;348578;28;909;-64
2022/10/05 01:25:06;;;;;;;;;;;;;;;;;;348559;28;976;-64
2022/10/05 01:25:22;;;;;;;;;;;;;;;;;;348420;28;1454;-63
2022/10/05 01:25:35;;;;;;;;;;;;;;;;;;350577;28;935;-63
2022/10/05 01:26:11;;;;;;;;;;;;;;;;;;351432;28;974;-64
2022/10/05 01:26:40;;;;;;;;;;;;;;;;;;347267;28;1108;-64
2022/10/05 01:27:00;;;;;;;;;;;;;;;;;;351357;28;778;-64
2022/10/05 01:27:14;;;;;;;;;;;;;;;;;;351405;28;989;-64
2022/10/05 01:27:27;;;;;;;;;;;;;;;;;;351422;28;986;-63
2022/10/05 01:27:37;;;;;;;;;;;;;;;;;;351438;28;789;-63
2022/10/05 01:28:00;;;;;;;;;;;;;;;;;;351422;28;840;-63
2022/10/05 01:28:14;;;;;;;;;;;;;;;;;;351386;28;990;-63
2022/10/05 01:28:27;;;;;;;;;;;;;;;;;;351412;28;986;-63
2022/10/05 01:28:45;;;;;;;;;;;;;;;;;;351415;28;948;-63
2022/10/05 01:29:33;;;;;;;;;;;;;;;;;;351372;28;899;-63
2022/10/05 01:29:50;;;;;;;;;;;;;;;;;;345736;28;861;-64
2022/10/05 01:30:26;;;;;;;;;;;;;;;;;;345725;28;830;-63
2022/10/05 01:30:38;;;;;;;;;;;;;;;;;;342753;28;1157;-64
2022/10/05 01:30:55;;;;;;;;;;;;;;;;;;345751;28;941;-63
2022/10/05 01:31:10;;;;;;;;;;;;;;;;;;345634;28;905;-64
2022/10/05 01:31:20;;;;;;;;;;;;;;;;;;345754;28;917;-64
2022/10/05 01:31:33;;;;;;;;;;;;;;;;;;345737;28;913;-64
2022/10/05 01:31:50;;;;;;;;;;;;;;;;;;345728;28;979;-64
2022/10/05 01:32:06;;;;;;;;;;;;;;;;;;345705;28;826;-64
2022/10/05 01:32:35;;;;;;;;;;;;;;;;;;345617;28;1154;-64
2022/10/05 01:32:53;;;;;;;;;;;;;;;;;;345523;28;1378;-63
2022/10/05 01:33:11;;;;;;;;;;;;;;;;;;344251;28;948;-63
2022/10/05 01:33:25;;;;;;;;;;;;;;;;;;344409;28;755;-63
2022/10/05 01:33:53;;;;;;;;;;;;;;;;;;344404;28;842;-63
2022/10/05 01:34:12;;;;;;;;;;;;;;;;;;344311;28;937;-64
2022/10/05 01:34:28;;;;;;;;;;;;;;;;;;344373;28;897;-63
2022/10/05 01:34:42;;;;;;;;;;;;;;;;;;344395;28;937;-63
2022/10/05 01:35:11;;;;;;;;;;;;;;;;;;344321;28;1011;-63
2022/10/05 01:35:21;;;;;;;;;;;;;;;;;;344343;28;1008;-63
2022/10/05 01:35:37;;;;;;;;;;;;;;;;;;344369;28;933;-64
2022/10/05 01:35:59;;;;;;;;;;;;;;;;;;345759;28;1097;-63
2022/10/05 01:36:19;;;;;;;;;;;;;;;;;;348242;28;1372;-64
2022/10/05 01:36:41;;;;;;;;;;;;;;;;;;350501;28;1710;-63
2022/10/05 01:37:02;;;;;;;;;;;;;;;;;;351362;28;861;-63
2022/10/05 01:37:31;;;;;;;;;;;;;;;;;;351335;28;778;-63
2022/10/05 01:37:53;;;;;;;;;;;;;;;;;;351265;28;1905;-64
2022/10/05 01:38:12;;;;;;;;;;;;;;;;;;351380;28;936;-63
2022/10/05 01:38:27;;;;;;;;;;;;;;;;;;348495;28;1399;-63
2022/10/05 01:38:43;;;;;;;;;;;;;;;;;;349803;28;915;-63
2022/10/05 01:39:06;;;;;;;;;;;;;;;;;;349826;28;1414;-63
2022/10/05 01:39:30;;;;;;;;;;;;;;;;;;349996;28;952;-63
2022/10/05 01:39:55;;;;;;;;;;;;;;;;;;349266;28;1344;-63
2022/10/05 01:40:05;;;;;;;;;;;;;;;;;;348772;28;1466;-64
2022/10/05 01:40:35;;;;;;;;;;;;;;;;;;349539;28;1159;-63
2022/10/05 01:40:57;;;;;;;;;;;;;;;;;;349928;28;878;-63
2022/10/05 01:41:19;;;;;;;;;;;;;;;;;;350002;28;948;-63
2022/10/05 01:41:49;;;;;;;;;;;;;;;;;;349891;28;916;-64
2022/10/05 01:42:11;;;;;;;;;;;;;;;;;;349241;28;1398;-63
2022/10/05 01:42:42;;;;;;;;;;;;;;;;;;349331;28;1387;-63
2022/10/05 01:42:58;;;;;;;;;;;;;;;;;;348208;28;1419;-63
2022/10/05 01:43:28;;;;;;;;;;;;;;;;;;349823;28;1773;-63
2022/10/05 01:43:42;;;;;;;;;;;;;;;;;;349299;28;1111;-64
2022/10/05 01:44:12;;;;;;;;;;;;;;;;;;349921;28;967;-64
2022/10/05 01:44:29;;;;;;;;;;;;;;;;;;349997;28;762;-63
2022/10/05 01:44:46;;;;;;;;;;;;;;;;;;350046;28;778;-64
2022/10/05 01:45:00;;;;;;;;;;;;;;;;;;349958;28;1039;-64
2022/10/05 01:45:32;;;;;;;;;;;;;;;;;;349942;28;854;-63
2022/10/05 01:45:54;;;;;;;;;;;;;;;;;;349968;28;833;-64
2022/10/05 01:46:05;;;;;;;;;;;;;;;;;;349940;28;988;-64
2022/10/05 01:46:24;;;;;;;;;;;;;;;;;;350024;28;1017;-63
2022/10/05 01:46:42;;;;;;;;;;;;;;;;;;350031;28;1063;-64
2022/10/05 01:46:58;;;;;;;;;;;;;;;;;;349939;28;1017;-64
2022/10/05 01:47:15;;;;;;;;;;;;;;;;;;349979;28;976;-63
2022/10/05 01:47:46;;;;;;;;;;;;;;;;;;349978;28;901;-63
2022/10/05 01:48:14;;;;;;;;;;;;;;;;;;349957;28;1015;-64
2022/10/05 01:48:36;;;;;;;;;;;;;;;;;;349934;28;924;-63
2022/10/05 01:48:46;;;;;;;;;;;;;;;;;;349880;28;1222;-63
2022/10/05 01:49:05;;;;;;;;;;;;;;;;;;349992;28;929;-63
2022/10/05 01:49:21;;;;;;;;;;;;;;;;;;350000;28;908;-63
2022/10/05 01:49:31;;;;;;;;;;;;;;;;;;349974;28;786;-63
2022/10/05 01:49:46;;;;;;;;;;;;;;;;;;349979;28;1019;-63
2022/10/05 01:50:00;;;;;;;;;;;;;;;;;;349973;28;801;-64
2022/10/05 01:50:20;;;;;;;;;;;;;;;;;;349927;28;1007;-64
2022/10/05 01:50:57;;;;;;;;;;;;;;;;;;349966;28;1004;-64
2022/10/05 01:51:10;;;;;;;;;;;;;;;;;;345572;28;1011;-64
2022/10/05 01:51:26;;;;;;;;;;;;;;;;;;348601;28;920;-63
2022/10/05 01:51:42;;;;;;;;;;;;;;;;;;348576;28;798;-64
2022/10/05 01:51:52;;;;;;;;;;;;;;;;;;348583;28;1038;-64
2022/10/05 01:52:08;;;;;;;;;;;;;;;;;;348591;28;956;-63
2022/10/05 01:52:30;;;;;;;;;;;;;;;;;;348585;28;870;-64
2022/10/05 01:52:46;;;;;;;;;;;;;;;;;;348612;28;932;-63
2022/10/05 01:53:21;;;;;;;;;;;;;;;;;;348547;28;924;-63
2022/10/05 01:53:40;;;;;;;;;;;;;;;;;;348568;28;1051;-63
2022/10/05 01:53:56;;;;;;;;;;;;;;;;;;348558;28;920;-63
2022/10/05 01:54:07;;;;;;;;;;;;;;;;;;348627;28;1067;-64
2022/10/05 01:54:34;;;;;;;;;;;;;;;;;;348582;28;979;-64
2022/10/05 01:55:02;;;;;;;;;;;;;;;;;;348543;28;912;-63
2022/10/05 01:55:26;;;;;;;;;;;;;;;;;;348539;28;960;-63
2022/10/05 01:55:44;;;;;;;;;;;;;;;;;;348566;28;1055;-63
2022/10/05 01:56:04;;;;;;;;;;;;;;;;;;348584;28;854;-64
2022/10/05 01:56:14;;;;;;;;;;;;;;;;;;348547;28;1003;-63
2022/10/05 01:56:38;;;;;;;;;;;;;;;;;;348621;28;791;-64
2022/10/05 01:56:56;;;;;;;;;;;;;;;;;;348491;28;920;-63
2022/10/05 01:57:33;;;;;;;;;;;;;;;;;;348566;28;925;-63
2022/10/05 01:57:56;;;;;;;;;;;;;;;;;;348497;28;1909;-63
2022/10/05 01:58:14;;;;;;;;;;;;;;;;;;348555;28;948;-63
2022/10/05 01:58:34;;;;;;;;;;;;;;;;;;348533;28;936;-63